Mud City, Vermont
Current Conditions -  °F | °C
As of 10:54 AM on Friday 28 Nov 2014 (Local Time) from KMVL Reporting Station
Overcast Overcast  
Wind Chill: 18°   Ceiling: 3000
Heat Index: 25°   Visibility: 9mi
Dew Point: 15°   Wind: 6mph
Humidity: 66%   Direction: NA
Pressure: 30.08"   Gusts: NA
Location:  44.5482°N, 72.6315°W
Report Text: KMVL 281554Z AUTO VRB05KT 9SM BKN030 OVC038 M04/M09 A3008 RMK AO2 SNE54 SLP200 P0000 T10391094 TSNO
Loading
Personal Weather Stations






























Interactive Weather Map New forecast layout! Learn more

10-Day Weather Forecast

Advertisements
Track Severe Weather on mobile